sensor_id;sensor_type;location;lat;lon;timestamp;P1;durP1;ratioP1;P2;durP2;ratioP2
59273;SDS011;45044;41.572;24.730;2022-09-09T00:04:33;12.52;;;9.50;;
59273;SDS011;45044;41.572;24.730;2022-09-09T00:09:57;11.43;;;9.57;;
59273;SDS011;45044;41.572;24.730;2022-09-09T00:12:34;11.02;;;9.30;;
59273;SDS011;45044;41.572;24.730;2022-09-09T00:15:12;10.73;;;9.63;;
59273;SDS011;45044;41.572;24.730;2022-09-09T00:17:58;12.10;;;9.98;;
59273;SDS011;45044;41.572;24.730;2022-09-09T00:20:29;11.35;;;9.15;;
59273;SDS011;45044;41.572;24.730;2022-09-09T00:23:12;12.95;;;10.30;;
59273;SDS011;45044;41.572;24.730;2022-09-09T00:26:16;12.52;;;10.50;;
59273;SDS011;45044;41.572;24.730;2022-09-09T00:31:31;11.02;;;9.32;;
59273;SDS011;45044;41.572;24.730;2022-09-09T00:34:02;15.45;;;9.70;;
59273;SDS011;45044;41.572;24.730;2022-09-09T00:36:37;10.85;;;9.35;;
59273;SDS011;45044;41.572;24.730;2022-09-09T00:39:05;11.32;;;9.82;;
59273;SDS011;45044;41.572;24.730;2022-09-09T00:44:32;11.07;;;9.25;;
59273;SDS011;45044;41.572;24.730;2022-09-09T00:58:26;12.35;;;10.52;;
59273;SDS011;45044;41.572;24.730;2022-09-09T01:00:57;12.07;;;10.13;;
59273;SDS011;45044;41.572;24.730;2022-09-09T01:08:56;13.55;;;10.48;;
59273;SDS011;45044;41.572;24.730;2022-09-09T01:17:01;10.15;;;9.07;;
59273;SDS011;45044;41.572;24.730;2022-09-09T01:19:37;11.77;;;9.57;;
59273;SDS011;45044;41.572;24.730;2022-09-09T01:27:35;11.85;;;10.35;;
59273;SDS011;45044;41.572;24.730;2022-09-09T01:30:10;11.70;;;10.50;;
59273;SDS011;45044;41.572;24.730;2022-09-09T01:32:43;11.77;;;9.93;;
59273;SDS011;45044;41.572;24.730;2022-09-09T01:38:00;11.27;;;9.85;;
59273;SDS011;45044;41.572;24.730;2022-09-09T01:40:27;11.10;;;9.50;;
59273;SDS011;45044;41.572;24.730;2022-09-09T01:42:54;11.65;;;9.80;;
59273;SDS011;45044;41.572;24.730;2022-09-09T01:45:22;11.15;;;9.50;;
59273;SDS011;45044;41.572;24.730;2022-09-09T01:47:50;11.55;;;10.15;;
59273;SDS011;45044;41.572;24.730;2022-09-09T01:50:19;11.98;;;10.13;;
59273;SDS011;45044;41.572;24.730;2022-09-09T01:52:47;12.88;;;10.10;;
59273;SDS011;45044;41.572;24.730;2022-09-09T01:55:19;11.98;;;9.85;;
59273;SDS011;45044;41.572;24.730;2022-09-09T01:58:45;14.15;;;10.30;;
59273;SDS011;45044;41.572;24.730;2022-09-09T02:00:55;12.60;;;11.02;;
59273;SDS011;45044;41.572;24.730;2022-09-09T02:03:54;11.40;;;9.90;;
59273;SDS011;45044;41.572;24.730;2022-09-09T02:06:36;12.07;;;9.90;;
59273;SDS011;45044;41.572;24.730;2022-09-09T02:09:05;11.43;;;9.73;;
59273;SDS011;45044;41.572;24.730;2022-09-09T02:11:34;12.07;;;10.13;;
59273;SDS011;45044;41.572;24.730;2022-09-09T02:14:02;11.57;;;10.38;;
59273;SDS011;45044;41.572;24.730;2022-09-09T02:16:48;13.50;;;10.45;;
59273;SDS011;45044;41.572;24.730;2022-09-09T02:19:20;11.43;;;9.95;;
59273;SDS011;45044;41.572;24.730;2022-09-09T02:21:52;14.00;;;11.00;;
59273;SDS011;45044;41.572;24.730;2022-09-09T02:24:22;12.70;;;10.20;;
59273;SDS011;45044;41.572;24.730;2022-09-09T02:26:49;12.70;;;10.32;;
59273;SDS011;45044;41.572;24.730;2022-09-09T02:29:20;15.50;;;10.93;;
59273;SDS011;45044;41.572;24.730;2022-09-09T02:31:52;12.18;;;10.38;;
59273;SDS011;45044;41.572;24.730;2022-09-09T02:34:21;13.35;;;10.20;;
59273;SDS011;45044;41.572;24.730;2022-09-09T02:36:50;12.60;;;10.25;;
59273;SDS011;45044;41.572;24.730;2022-09-09T02:39:20;13.10;;;10.48;;
59273;SDS011;45044;41.572;24.730;2022-09-09T02:41:47;11.30;;;10.10;;
59273;SDS011;45044;41.572;24.730;2022-09-09T02:44:14;13.38;;;10.50;;
59273;SDS011;45044;41.572;24.730;2022-09-09T02:54:59;14.02;;;10.98;;
59273;SDS011;45044;41.572;24.730;2022-09-09T02:57:33;12.43;;;10.32;;
59273;SDS011;45044;41.572;24.730;2022-09-09T03:00:00;12.77;;;11.05;;
59273;SDS011;45044;41.572;24.730;2022-09-09T03:02:27;14.65;;;10.90;;
59273;SDS011;45044;41.572;24.730;2022-09-09T03:04:54;11.65;;;10.10;;
59273;SDS011;45044;41.572;24.730;2022-09-09T03:07:21;11.93;;;10.40;;
59273;SDS011;45044;41.572;24.730;2022-09-09T03:09:48;11.50;;;9.60;;
59273;SDS011;45044;41.572;24.730;2022-09-09T03:12:15;12.18;;;10.15;;
59273;SDS011;45044;41.572;24.730;2022-09-09T03:14:42;13.38;;;10.52;;
59273;SDS011;45044;41.572;24.730;2022-09-09T03:17:11;12.73;;;9.45;;
59273;SDS011;45044;41.572;24.730;2022-09-09T03:19:38;12.40;;;10.63;;
59273;SDS011;45044;41.572;24.730;2022-09-09T03:22:05;12.63;;;10.27;;
59273;SDS011;45044;41.572;24.730;2022-09-09T03:24:32;11.63;;;9.80;;
59273;SDS011;45044;41.572;24.730;2022-09-09T03:26:59;12.55;;;10.60;;
59273;SDS011;45044;41.572;24.730;2022-09-09T03:29:25;12.35;;;10.10;;
59273;SDS011;45044;41.572;24.730;2022-09-09T03:31:52;12.20;;;10.85;;
59273;SDS011;45044;41.572;24.730;2022-09-09T03:34:19;13.98;;;10.60;;
59273;SDS011;45044;41.572;24.730;2022-09-09T03:36:45;11.98;;;10.15;;
59273;SDS011;45044;41.572;24.730;2022-09-09T03:39:14;14.25;;;10.88;;
59273;SDS011;45044;41.572;24.730;2022-09-09T03:41:41;13.02;;;10.38;;
59273;SDS011;45044;41.572;24.730;2022-09-09T03:44:08;14.52;;;10.40;;
59273;SDS011;45044;41.572;24.730;2022-09-09T03:46:35;11.75;;;10.15;;
59273;SDS011;45044;41.572;24.730;2022-09-09T03:49:01;12.65;;;10.90;;
59273;SDS011;45044;41.572;24.730;2022-09-09T03:51:28;13.45;;;10.82;;
59273;SDS011;45044;41.572;24.730;2022-09-09T03:53:55;12.88;;;10.85;;
59273;SDS011;45044;41.572;24.730;2022-09-09T03:56:24;14.52;;;11.00;;
59273;SDS011;45044;41.572;24.730;2022-09-09T03:58:51;14.85;;;11.13;;
59273;SDS011;45044;41.572;24.730;2022-09-09T04:01:17;15.15;;;11.18;;
59273;SDS011;45044;41.572;24.730;2022-09-09T04:03:44;16.42;;;11.10;;
59273;SDS011;45044;41.572;24.730;2022-09-09T04:06:12;14.88;;;11.20;;
59273;SDS011;45044;41.572;24.730;2022-09-09T04:08:41;15.70;;;11.30;;
59273;SDS011;45044;41.572;24.730;2022-09-09T04:11:08;14.25;;;11.00;;
59273;SDS011;45044;41.572;24.730;2022-09-09T04:13:37;12.57;;;10.52;;
59273;SDS011;45044;41.572;24.730;2022-09-09T04:16:06;12.05;;;10.13;;
59273;SDS011;45044;41.572;24.730;2022-09-09T04:18:33;12.85;;;10.15;;
59273;SDS011;45044;41.572;24.730;2022-09-09T04:21:01;14.48;;;11.23;;
59273;SDS011;45044;41.572;24.730;2022-09-09T04:23:29;13.63;;;10.70;;
59273;SDS011;45044;41.572;24.730;2022-09-09T04:25:57;19.70;;;12.07;;
59273;SDS011;45044;41.572;24.730;2022-09-09T04:28:28;13.60;;;11.40;;
59273;SDS011;45044;41.572;24.730;2022-09-09T04:31:03;13.52;;;11.48;;
59273;SDS011;45044;41.572;24.730;2022-09-09T04:33:31;16.67;;;11.50;;
59273;SDS011;45044;41.572;24.730;2022-09-09T04:36:03;16.52;;;11.68;;
59273;SDS011;45044;41.572;24.730;2022-09-09T04:38:30;14.63;;;10.68;;
59273;SDS011;45044;41.572;24.730;2022-09-09T04:40:57;12.15;;;10.38;;
59273;SDS011;45044;41.572;24.730;2022-09-09T04:43:24;14.90;;;11.43;;
59273;SDS011;45044;41.572;24.730;2022-09-09T04:45:52;16.80;;;12.07;;
59273;SDS011;45044;41.572;24.730;2022-09-09T04:48:20;16.23;;;11.90;;
59273;SDS011;45044;41.572;24.730;2022-09-09T04:50:57;13.85;;;11.85;;
59273;SDS011;45044;41.572;24.730;2022-09-09T04:53:26;14.88;;;12.23;;
59273;SDS011;45044;41.572;24.730;2022-09-09T04:56:01;17.83;;;12.77;;
59273;SDS011;45044;41.572;24.730;2022-09-09T04:58:29;15.73;;;12.55;;
59273;SDS011;45044;41.572;24.730;2022-09-09T05:01:06;15.23;;;12.88;;
59273;SDS011;45044;41.572;24.730;2022-09-09T05:03:34;16.25;;;13.35;;
59273;SDS011;45044;41.572;24.730;2022-09-09T05:08:32;17.88;;;15.93;;
59273;SDS011;45044;41.572;24.730;2022-09-09T05:10:59;17.90;;;14.95;;
59273;SDS011;45044;41.572;24.730;2022-09-09T05:13:26;15.95;;;13.85;;
59273;SDS011;45044;41.572;24.730;2022-09-09T05:15:54;16.83;;;14.90;;
59273;SDS011;45044;41.572;24.730;2022-09-09T05:18:21;17.90;;;14.85;;
59273;SDS011;45044;41.572;24.730;2022-09-09T05:20:49;18.23;;;14.98;;
59273;SDS011;45044;41.572;24.730;2022-09-09T05:23:17;17.35;;;14.25;;
59273;SDS011;45044;41.572;24.730;2022-09-09T05:25:43;15.40;;;12.70;;
59273;SDS011;45044;41.572;24.730;2022-09-09T05:28:22;15.02;;;11.55;;
59273;SDS011;45044;41.572;24.730;2022-09-09T05:30:57;12.77;;;11.10;;
59273;SDS011;45044;41.572;24.730;2022-09-09T05:33:35;10.77;;;9.67;;
59273;SDS011;45044;41.572;24.730;2022-09-09T05:36:03;13.52;;;11.30;;
59273;SDS011;45044;41.572;24.730;2022-09-09T05:38:34;13.70;;;11.40;;
59273;SDS011;45044;41.572;24.730;2022-09-09T05:41:02;11.60;;;10.43;;
59273;SDS011;45044;41.572;24.730;2022-09-09T05:43:29;13.05;;;10.88;;
59273;SDS011;45044;41.572;24.730;2022-09-09T05:46:03;10.93;;;9.82;;
59273;SDS011;45044;41.572;24.730;2022-09-09T05:48:39;11.05;;;9.95;;
59273;SDS011;45044;41.572;24.730;2022-09-09T05:51:11;11.25;;;9.00;;
59273;SDS011;45044;41.572;24.730;2022-09-09T05:53:42;10.57;;;9.40;;
59273;SDS011;45044;41.572;24.730;2022-09-09T05:56:16;12.27;;;9.65;;
59273;SDS011;45044;41.572;24.730;2022-09-09T05:58:44;11.07;;;9.90;;
59273;SDS011;45044;41.572;24.730;2022-09-09T06:01:14;9.95;;;8.60;;
59273;SDS011;45044;41.572;24.730;2022-09-09T06:03:43;10.00;;;9.00;;
59273;SDS011;45044;41.572;24.730;2022-09-09T06:06:12;12.00;;;8.93;;
59273;SDS011;45044;41.572;24.730;2022-09-09T06:08:41;12.85;;;10.52;;
59273;SDS011;45044;41.572;24.730;2022-09-09T06:11:13;12.32;;;9.32;;
59273;SDS011;45044;41.572;24.730;2022-09-09T06:13:45;12.18;;;9.60;;
59273;SDS011;45044;41.572;24.730;2022-09-09T06:16:15;9.98;;;8.38;;
59273;SDS011;45044;41.572;24.730;2022-09-09T06:18:43;10.25;;;7.85;;
59273;SDS011;45044;41.572;24.730;2022-09-09T06:21:22;13.20;;;8.00;;
59273;SDS011;45044;41.572;24.730;2022-09-09T06:23:50;11.73;;;8.38;;
59273;SDS011;45044;41.572;24.730;2022-09-09T06:26:18;9.07;;;8.15;;
59273;SDS011;45044;41.572;24.730;2022-09-09T06:28:50;9.10;;;6.57;;
59273;SDS011;45044;41.572;24.730;2022-09-09T06:31:20;9.70;;;7.00;;
59273;SDS011;45044;41.572;24.730;2022-09-09T06:33:55;10.02;;;6.47;;
59273;SDS011;45044;41.572;24.730;2022-09-09T06:36:23;7.70;;;6.90;;
59273;SDS011;45044;41.572;24.730;2022-09-09T06:38:51;8.38;;;7.00;;
59273;SDS011;45044;41.572;24.730;2022-09-09T06:41:19;8.80;;;7.43;;
59273;SDS011;45044;41.572;24.730;2022-09-09T06:43:47;8.95;;;7.75;;
59273;SDS011;45044;41.572;24.730;2022-09-09T06:46:15;10.38;;;7.18;;
59273;SDS011;45044;41.572;24.730;2022-09-09T06:48:48;9.38;;;6.97;;
59273;SDS011;45044;41.572;24.730;2022-09-09T06:51:16;9.48;;;7.10;;
59273;SDS011;45044;41.572;24.730;2022-09-09T06:53:44;7.90;;;6.40;;
59273;SDS011;45044;41.572;24.730;2022-09-09T06:56:19;10.70;;;6.50;;
59273;SDS011;45044;41.572;24.730;2022-09-09T06:58:52;9.05;;;6.10;;
59273;SDS011;45044;41.572;24.730;2022-09-09T07:01:22;7.95;;;6.28;;
59273;SDS011;45044;41.572;24.730;2022-09-09T07:03:51;8.88;;;6.57;;
59273;SDS011;45044;41.572;24.730;2022-09-09T07:06:22;8.10;;;6.43;;
59273;SDS011;45044;41.572;24.730;2022-09-09T07:08:57;10.02;;;7.13;;
59273;SDS011;45044;41.572;24.730;2022-09-09T07:11:26;7.00;;;5.75;;
59273;SDS011;45044;41.572;24.730;2022-09-09T07:13:55;7.63;;;6.40;;
59273;SDS011;45044;41.572;24.730;2022-09-09T07:16:23;7.75;;;6.13;;
59273;SDS011;45044;41.572;24.730;2022-09-09T07:18:51;8.35;;;6.18;;
59273;SDS011;45044;41.572;24.730;2022-09-09T07:21:19;10.05;;;6.82;;
59273;SDS011;45044;41.572;24.730;2022-09-09T07:23:47;7.88;;;6.15;;
59273;SDS011;45044;41.572;24.730;2022-09-09T07:26:15;8.80;;;6.25;;
59273;SDS011;45044;41.572;24.730;2022-09-09T07:28:43;10.27;;;6.45;;
59273;SDS011;45044;41.572;24.730;2022-09-09T07:31:16;9.75;;;5.60;;
59273;SDS011;45044;41.572;24.730;2022-09-09T07:33:44;8.68;;;6.30;;
59273;SDS011;45044;41.572;24.730;2022-09-09T07:38:45;8.07;;;6.38;;
59273;SDS011;45044;41.572;24.730;2022-09-09T07:41:21;7.97;;;6.35;;
59273;SDS011;45044;41.572;24.730;2022-09-09T07:43:51;10.40;;;6.55;;
59273;SDS011;45044;41.572;24.730;2022-09-09T07:46:20;9.43;;;6.60;;
59273;SDS011;45044;41.572;24.730;2022-09-09T07:48:49;9.35;;;6.65;;
59273;SDS011;45044;41.572;24.730;2022-09-09T07:51:23;11.88;;;7.47;;
59273;SDS011;45044;41.572;24.730;2022-09-09T07:53:58;9.55;;;6.65;;
59273;SDS011;45044;41.572;24.730;2022-09-09T07:56:28;8.20;;;6.38;;
59273;SDS011;45044;41.572;24.730;2022-09-09T07:58:56;8.00;;;6.22;;
59273;SDS011;45044;41.572;24.730;2022-09-09T08:01:32;8.82;;;6.50;;
59273;SDS011;45044;41.572;24.730;2022-09-09T08:04:02;11.82;;;6.50;;
59273;SDS011;45044;41.572;24.730;2022-09-09T08:06:32;7.90;;;5.70;;
59273;SDS011;45044;41.572;24.730;2022-09-09T08:09:05;7.22;;;4.90;;
59273;SDS011;45044;41.572;24.730;2022-09-09T08:11:33;8.43;;;5.30;;
59273;SDS011;45044;41.572;24.730;2022-09-09T08:14:04;7.75;;;5.30;;
59273;SDS011;45044;41.572;24.730;2022-09-09T08:16:35;7.55;;;5.20;;
59273;SDS011;45044;41.572;24.730;2022-09-09T08:19:04;7.68;;;4.93;;
59273;SDS011;45044;41.572;24.730;2022-09-09T08:21:34;6.68;;;5.95;;
59273;SDS011;45044;41.572;24.730;2022-09-09T08:24:03;7.00;;;5.30;;
59273;SDS011;45044;41.572;24.730;2022-09-09T08:26:34;5.60;;;4.95;;
59273;SDS011;45044;41.572;24.730;2022-09-09T08:29:03;6.90;;;4.45;;
59273;SDS011;45044;41.572;24.730;2022-09-09T08:31:39;7.82;;;5.40;;
59273;SDS011;45044;41.572;24.730;2022-09-09T08:34:12;8.13;;;4.70;;
59273;SDS011;45044;41.572;24.730;2022-09-09T08:36:40;7.75;;;4.75;;
59273;SDS011;45044;41.572;24.730;2022-09-09T08:39:09;7.13;;;4.57;;
59273;SDS011;45044;41.572;24.730;2022-09-09T08:47:24;6.57;;;4.10;;
59273;SDS011;45044;41.572;24.730;2022-09-09T08:55:20;6.95;;;4.50;;
59273;SDS011;45044;41.572;24.730;2022-09-09T08:57:53;7.93;;;4.47;;
59273;SDS011;45044;41.572;24.730;2022-09-09T09:00:22;8.27;;;4.95;;
59273;SDS011;45044;41.572;24.730;2022-09-09T09:05:44;8.30;;;5.07;;
59273;SDS011;45044;41.572;24.730;2022-09-09T09:10:47;7.03;;;4.78;;
59273;SDS011;45044;41.572;24.730;2022-09-09T09:13:20;8.43;;;4.68;;
59273;SDS011;45044;41.572;24.730;2022-09-09T09:15:55;7.57;;;4.47;;
59273;SDS011;45044;41.572;24.730;2022-09-09T09:18:26;6.50;;;4.50;;
59273;SDS011;45044;41.572;24.730;2022-09-09T09:24:02;6.60;;;4.22;;
59273;SDS011;45044;41.572;24.730;2022-09-09T09:26:33;7.60;;;4.50;;
59273;SDS011;45044;41.572;24.730;2022-09-09T09:29:08;7.90;;;4.07;;
59273;SDS011;45044;41.572;24.730;2022-09-09T09:34:05;8.45;;;4.57;;
59273;SDS011;45044;41.572;24.730;2022-09-09T09:36:38;7.85;;;4.75;;
59273;SDS011;45044;41.572;24.730;2022-09-09T09:39:07;7.38;;;4.93;;
59273;SDS011;45044;41.572;24.730;2022-09-09T09:41:55;8.13;;;5.07;;
59273;SDS011;45044;41.572;24.730;2022-09-09T09:44:28;8.85;;;4.55;;
59273;SDS011;45044;41.572;24.730;2022-09-09T09:49:34;9.23;;;4.72;;
59273;SDS011;45044;41.572;24.730;2022-09-09T09:52:01;8.55;;;5.03;;
59273;SDS011;45044;41.572;24.730;2022-09-09T09:54:30;6.82;;;3.53;;
59273;SDS011;45044;41.572;24.730;2022-09-09T09:57:13;8.07;;;4.10;;
59273;SDS011;45044;41.572;24.730;2022-09-09T09:59:42;8.75;;;3.80;;
59273;SDS011;45044;41.572;24.730;2022-09-09T10:04:40;8.55;;;3.67;;
59273;SDS011;45044;41.572;24.730;2022-09-09T10:07:11;8.00;;;4.43;;
59273;SDS011;45044;41.572;24.730;2022-09-09T10:09:39;6.85;;;3.78;;
59273;SDS011;45044;41.572;24.730;2022-09-09T10:15:02;7.28;;;4.32;;
59273;SDS011;45044;41.572;24.730;2022-09-09T10:20:46;6.72;;;3.35;;
59273;SDS011;45044;41.572;24.730;2022-09-09T10:32:06;9.15;;;3.60;;
59273;SDS011;45044;41.572;24.730;2022-09-09T10:40:41;8.07;;;3.90;;
59273;SDS011;45044;41.572;24.730;2022-09-09T10:56:26;9.38;;;3.67;;
59273;SDS011;45044;41.572;24.730;2022-09-09T10:59:10;8.43;;;4.15;;
59273;SDS011;45044;41.572;24.730;2022-09-09T11:01:41;6.40;;;3.60;;
59273;SDS011;45044;41.572;24.730;2022-09-09T11:04:15;7.30;;;3.97;;
59273;SDS011;45044;41.572;24.730;2022-09-09T11:06:51;5.97;;;3.67;;
59273;SDS011;45044;41.572;24.730;2022-09-09T11:14:32;6.32;;;3.35;;
59273;SDS011;45044;41.572;24.730;2022-09-09T11:17:12;8.52;;;3.83;;
59273;SDS011;45044;41.572;24.730;2022-09-09T11:19:43;6.78;;;4.05;;
59273;SDS011;45044;41.572;24.730;2022-09-09T11:24:58;8.23;;;4.22;;
59273;SDS011;45044;41.572;24.730;2022-09-09T11:33:49;9.57;;;3.85;;
59273;SDS011;45044;41.572;24.730;2022-09-09T11:42:18;7.13;;;4.00;;
59273;SDS011;45044;41.572;24.730;2022-09-09T11:44:48;9.02;;;4.22;;
59273;SDS011;45044;41.572;24.730;2022-09-09T11:47:26;6.90;;;5.18;;
59273;SDS011;45044;41.572;24.730;2022-09-09T11:53:24;6.70;;;4.30;;
59273;SDS011;45044;41.572;24.730;2022-09-09T11:56:11;8.35;;;4.40;;
59273;SDS011;45044;41.572;24.730;2022-09-09T11:58:43;6.10;;;4.40;;
59273;SDS011;45044;41.572;24.730;2022-09-09T12:01:27;8.63;;;4.95;;
59273;SDS011;45044;41.572;24.730;2022-09-09T12:04:05;6.88;;;4.45;;
59273;SDS011;45044;41.572;24.730;2022-09-09T12:06:41;7.68;;;4.97;;
59273;SDS011;45044;41.572;24.730;2022-09-09T12:09:19;7.97;;;5.30;;
59273;SDS011;45044;41.572;24.730;2022-09-09T12:11:49;9.57;;;4.90;;
59273;SDS011;45044;41.572;24.730;2022-09-09T12:14:34;9.38;;;4.60;;
59273;SDS011;45044;41.572;24.730;2022-09-09T12:17:26;10.88;;;4.80;;
59273;SDS011;45044;41.572;24.730;2022-09-09T12:20:14;7.18;;;5.05;;
59273;SDS011;45044;41.572;24.730;2022-09-09T12:28:19;6.40;;;4.65;;
59273;SDS011;45044;41.572;24.730;2022-09-09T12:36:03;9.25;;;5.30;;
59273;SDS011;45044;41.572;24.730;2022-09-09T12:38:39;6.60;;;5.20;;
59273;SDS011;45044;41.572;24.730;2022-09-09T12:41:21;7.35;;;4.80;;
59273;SDS011;45044;41.572;24.730;2022-09-09T12:43:49;6.97;;;5.03;;
59273;SDS011;45044;41.572;24.730;2022-09-09T12:48:58;7.63;;;4.63;;
59273;SDS011;45044;41.572;24.730;2022-09-09T12:51:26;6.72;;;4.40;;
59273;SDS011;45044;41.572;24.730;2022-09-09T12:53:56;6.75;;;5.07;;
59273;SDS011;45044;41.572;24.730;2022-09-09T12:56:28;7.03;;;4.65;;
59273;SDS011;45044;41.572;24.730;2022-09-09T12:58:58;7.50;;;5.05;;
59273;SDS011;45044;41.572;24.730;2022-09-09T13:01:28;7.20;;;4.25;;
59273;SDS011;45044;41.572;24.730;2022-09-09T13:03:56;7.97;;;5.57;;
59273;SDS011;45044;41.572;24.730;2022-09-09T13:06:27;7.15;;;4.70;;
59273;SDS011;45044;41.572;24.730;2022-09-09T13:08:56;7.07;;;4.07;;
59273;SDS011;45044;41.572;24.730;2022-09-09T13:11:35;7.25;;;4.70;;
59273;SDS011;45044;41.572;24.730;2022-09-09T13:14:06;7.50;;;4.82;;
59273;SDS011;45044;41.572;24.730;2022-09-09T13:16:34;5.95;;;4.55;;
59273;SDS011;45044;41.572;24.730;2022-09-09T13:19:08;9.18;;;4.85;;
59273;SDS011;45044;41.572;24.730;2022-09-09T13:21:42;9.15;;;5.63;;
59273;SDS011;45044;41.572;24.730;2022-09-09T13:24:23;9.07;;;6.13;;
59273;SDS011;45044;41.572;24.730;2022-09-09T13:26:56;10.38;;;4.90;;
59273;SDS011;45044;41.572;24.730;2022-09-09T13:29:28;6.88;;;4.72;;
59273;SDS011;45044;41.572;24.730;2022-09-09T13:32:03;8.38;;;5.13;;
59273;SDS011;45044;41.572;24.730;2022-09-09T13:34:33;6.80;;;5.25;;
59273;SDS011;45044;41.572;24.730;2022-09-09T13:37:05;6.80;;;4.95;;
59273;SDS011;45044;41.572;24.730;2022-09-09T13:39:50;10.43;;;5.20;;
59273;SDS011;45044;41.572;24.730;2022-09-09T13:42:29;8.45;;;5.32;;
59273;SDS011;45044;41.572;24.730;2022-09-09T13:45:04;6.87;;;4.63;;
59273;SDS011;45044;41.572;24.730;2022-09-09T13:47:34;7.15;;;5.53;;
59273;SDS011;45044;41.572;24.730;2022-09-09T13:52:56;8.13;;;5.78;;
59273;SDS011;45044;41.572;24.730;2022-09-09T13:55:25;8.65;;;6.45;;
59273;SDS011;45044;41.572;24.730;2022-09-09T13:57:55;6.15;;;4.40;;
59273;SDS011;45044;41.572;24.730;2022-09-09T14:00:29;12.02;;;6.32;;
59273;SDS011;45044;41.572;24.730;2022-09-09T14:02:57;7.72;;;5.43;;
59273;SDS011;45044;41.572;24.730;2022-09-09T14:05:26;8.48;;;5.72;;
59273;SDS011;45044;41.572;24.730;2022-09-09T14:07:53;7.68;;;5.40;;
59273;SDS011;45044;41.572;24.730;2022-09-09T14:10:20;7.03;;;5.65;;
59273;SDS011;45044;41.572;24.730;2022-09-09T14:12:48;9.82;;;6.03;;
59273;SDS011;45044;41.572;24.730;2022-09-09T14:15:15;9.85;;;6.32;;
59273;SDS011;45044;41.572;24.730;2022-09-09T14:17:42;10.18;;;6.18;;
59273;SDS011;45044;41.572;24.730;2022-09-09T14:20:09;8.68;;;5.85;;
59273;SDS011;45044;41.572;24.730;2022-09-09T14:22:38;9.23;;;6.05;;
59273;SDS011;45044;41.572;24.730;2022-09-09T14:25:06;9.68;;;6.47;;
59273;SDS011;45044;41.572;24.730;2022-09-09T14:27:33;7.47;;;5.55;;
59273;SDS011;45044;41.572;24.730;2022-09-09T14:30:00;7.70;;;6.30;;
59273;SDS011;45044;41.572;24.730;2022-09-09T14:32:27;10.10;;;6.50;;
59273;SDS011;45044;41.572;24.730;2022-09-09T14:34:54;8.55;;;6.15;;
59273;SDS011;45044;41.572;24.730;2022-09-09T14:37:20;8.15;;;6.45;;
59273;SDS011;45044;41.572;24.730;2022-09-09T14:39:47;8.00;;;6.53;;
59273;SDS011;45044;41.572;24.730;2022-09-09T14:42:16;9.85;;;6.60;;
59273;SDS011;45044;41.572;24.730;2022-09-09T14:44:44;7.05;;;5.85;;
59273;SDS011;45044;41.572;24.730;2022-09-09T14:47:10;7.97;;;6.00;;
59273;SDS011;45044;41.572;24.730;2022-09-09T14:49:37;8.60;;;4.97;;
59273;SDS011;45044;41.572;24.730;2022-09-09T14:52:09;10.15;;;6.60;;
59273;SDS011;45044;41.572;24.730;2022-09-09T14:54:36;7.78;;;6.35;;
59273;SDS011;45044;41.572;24.730;2022-09-09T14:57:02;9.85;;;6.85;;
59273;SDS011;45044;41.572;24.730;2022-09-09T14:59:29;9.15;;;6.35;;
59273;SDS011;45044;41.572;24.730;2022-09-09T15:01:56;7.65;;;5.72;;
59273;SDS011;45044;41.572;24.730;2022-09-09T15:04:23;11.32;;;6.90;;
59273;SDS011;45044;41.572;24.730;2022-09-09T15:06:50;9.07;;;7.40;;
59273;SDS011;45044;41.572;24.730;2022-09-09T15:09:19;8.93;;;6.80;;
59273;SDS011;45044;41.572;24.730;2022-09-09T15:11:46;10.90;;;7.10;;
59273;SDS011;45044;41.572;24.730;2022-09-09T15:14:13;9.35;;;6.85;;
59273;SDS011;45044;41.572;24.730;2022-09-09T15:16:40;8.50;;;6.78;;
59273;SDS011;45044;41.572;24.730;2022-09-09T15:19:07;7.43;;;6.22;;
59273;SDS011;45044;41.572;24.730;2022-09-09T15:21:36;10.38;;;7.05;;
59273;SDS011;45044;41.572;24.730;2022-09-09T15:24:04;9.30;;;6.82;;
59273;SDS011;45044;41.572;24.730;2022-09-09T15:26:34;8.95;;;6.65;;
59273;SDS011;45044;41.572;24.730;2022-09-09T15:29:05;7.82;;;6.78;;
59273;SDS011;45044;41.572;24.730;2022-09-09T15:31:33;9.85;;;7.30;;
59273;SDS011;45044;41.572;24.730;2022-09-09T15:34:01;10.13;;;8.10;;
59273;SDS011;45044;41.572;24.730;2022-09-09T15:36:36;9.02;;;7.55;;
59273;SDS011;45044;41.572;24.730;2022-09-09T15:39:05;8.95;;;7.53;;
59273;SDS011;45044;41.572;24.730;2022-09-09T15:41:33;8.30;;;6.80;;
59273;SDS011;45044;41.572;24.730;2022-09-09T15:44:01;9.23;;;8.07;;
59273;SDS011;45044;41.572;24.730;2022-09-09T15:48:58;9.85;;;7.50;;
59273;SDS011;45044;41.572;24.730;2022-09-09T15:51:44;8.50;;;6.10;;
59273;SDS011;45044;41.572;24.730;2022-09-09T15:54:14;9.98;;;8.05;;
59273;SDS011;45044;41.572;24.730;2022-09-09T15:56:43;9.05;;;8.15;;
59273;SDS011;45044;41.572;24.730;2022-09-09T15:59:11;8.75;;;7.50;;
59273;SDS011;45044;41.572;24.730;2022-09-09T16:01:38;8.98;;;7.65;;
59273;SDS011;45044;41.572;24.730;2022-09-09T16:04:08;10.88;;;8.00;;
59273;SDS011;45044;41.572;24.730;2022-09-09T16:06:36;10.48;;;8.35;;
59273;SDS011;45044;41.572;24.730;2022-09-09T16:09:03;9.25;;;7.28;;
59273;SDS011;45044;41.572;24.730;2022-09-09T16:11:33;9.70;;;8.30;;
59273;SDS011;45044;41.572;24.730;2022-09-09T16:14:02;10.43;;;8.88;;
59273;SDS011;45044;41.572;24.730;2022-09-09T16:16:30;9.10;;;7.75;;
59273;SDS011;45044;41.572;24.730;2022-09-09T16:18:58;8.65;;;7.43;;
59273;SDS011;45044;41.572;24.730;2022-09-09T16:21:28;9.65;;;8.38;;
59273;SDS011;45044;41.572;24.730;2022-09-09T16:23:57;9.18;;;8.20;;
59273;SDS011;45044;41.572;24.730;2022-09-09T16:26:29;11.38;;;8.57;;
59273;SDS011;45044;41.572;24.730;2022-09-09T16:29:01;9.70;;;7.43;;
59273;SDS011;45044;41.572;24.730;2022-09-09T16:31:29;10.30;;;8.60;;
59273;SDS011;45044;41.572;24.730;2022-09-09T16:33:58;9.32;;;7.80;;
59273;SDS011;45044;41.572;24.730;2022-09-09T16:36:26;9.95;;;8.32;;
59273;SDS011;45044;41.572;24.730;2022-09-09T16:39:00;9.63;;;8.13;;
59273;SDS011;45044;41.572;24.730;2022-09-09T16:41:30;11.65;;;8.50;;
59273;SDS011;45044;41.572;24.730;2022-09-09T16:43:59;10.30;;;9.20;;
59273;SDS011;45044;41.572;24.730;2022-09-09T16:46:29;10.82;;;8.82;;
59273;SDS011;45044;41.572;24.730;2022-09-09T16:48:57;9.10;;;7.82;;
59273;SDS011;45044;41.572;24.730;2022-09-09T16:51:35;12.00;;;8.32;;
59273;SDS011;45044;41.572;24.730;2022-09-09T16:54:05;9.25;;;8.32;;
59273;SDS011;45044;41.572;24.730;2022-09-09T16:56:35;9.50;;;8.50;;
59273;SDS011;45044;41.572;24.730;2022-09-09T16:59:05;11.43;;;9.43;;
59273;SDS011;45044;41.572;24.730;2022-09-09T17:01:35;10.75;;;9.60;;
59273;SDS011;45044;41.572;24.730;2022-09-09T17:04:11;9.77;;;8.57;;
59273;SDS011;45044;41.572;24.730;2022-09-09T17:06:41;10.73;;;8.95;;
59273;SDS011;45044;41.572;24.730;2022-09-09T17:09:11;13.32;;;9.23;;
59273;SDS011;45044;41.572;24.730;2022-09-09T17:11:39;10.05;;;8.93;;
59273;SDS011;45044;41.572;24.730;2022-09-09T17:14:07;12.77;;;9.50;;
59273;SDS011;45044;41.572;24.730;2022-09-09T17:16:36;11.50;;;9.60;;
59273;SDS011;45044;41.572;24.730;2022-09-09T17:19:05;11.57;;;10.35;;
59273;SDS011;45044;41.572;24.730;2022-09-09T17:21:34;11.43;;;10.05;;
59273;SDS011;45044;41.572;24.730;2022-09-09T17:24:20;11.45;;;9.50;;
59273;SDS011;45044;41.572;24.730;2022-09-09T17:26:48;13.65;;;9.55;;